sensor_id;sensor_type;location;lat;lon;timestamp;P1;durP1;ratioP1;P2;durP2;ratioP2
30934;SDS011;51033;42.648;23.292;2023-03-04T00:00:33;23.20;;;15.93;;
30934;SDS011;51033;42.648;23.292;2023-03-04T00:02:58;22.13;;;15.73;;
30934;SDS011;51033;42.648;23.292;2023-03-04T00:05:23;22.40;;;16.38;;
30934;SDS011;51033;42.648;23.292;2023-03-04T00:07:49;20.80;;;15.45;;
30934;SDS011;51033;42.648;23.292;2023-03-04T00:10:14;22.63;;;16.20;;
30934;SDS011;51033;42.648;23.292;2023-03-04T00:12:39;25.77;;;16.98;;
30934;SDS011;51033;42.648;23.292;2023-03-04T00:15:05;23.20;;;16.77;;
30934;SDS011;51033;42.648;23.292;2023-03-04T00:17:31;27.05;;;17.83;;
30934;SDS011;51033;42.648;23.292;2023-03-04T00:19:56;26.48;;;19.63;;
30934;SDS011;51033;42.648;23.292;2023-03-04T00:22:22;29.60;;;20.33;;
30934;SDS011;51033;42.648;23.292;2023-03-04T00:24:48;32.50;;;24.60;;
30934;SDS011;51033;42.648;23.292;2023-03-04T00:27:13;29.58;;;20.63;;
30934;SDS011;51033;42.648;23.292;2023-03-04T00:29:39;29.77;;;20.90;;
30934;SDS011;51033;42.648;23.292;2023-03-04T00:32:05;31.80;;;20.95;;
30934;SDS011;51033;42.648;23.292;2023-03-04T00:34:30;27.25;;;19.63;;
30934;SDS011;51033;42.648;23.292;2023-03-04T00:36:55;27.35;;;18.83;;
30934;SDS011;51033;42.648;23.292;2023-03-04T00:39:25;26.15;;;19.45;;
30934;SDS011;51033;42.648;23.292;2023-03-04T00:41:52;28.10;;;19.60;;
30934;SDS011;51033;42.648;23.292;2023-03-04T00:44:18;27.42;;;19.17;;
30934;SDS011;51033;42.648;23.292;2023-03-04T00:46:43;28.05;;;19.13;;
30934;SDS011;51033;42.648;23.292;2023-03-04T00:49:08;25.38;;;19.17;;
30934;SDS011;51033;42.648;23.292;2023-03-04T00:51:34;23.45;;;17.08;;
30934;SDS011;51033;42.648;23.292;2023-03-04T00:53:59;23.48;;;16.83;;
30934;SDS011;51033;42.648;23.292;2023-03-04T00:56:25;25.40;;;18.50;;
30934;SDS011;51033;42.648;23.292;2023-03-04T00:58:50;25.48;;;17.17;;
30934;SDS011;51033;42.648;23.292;2023-03-04T01:01:15;23.85;;;17.30;;
30934;SDS011;51033;42.648;23.292;2023-03-04T01:03:41;23.13;;;16.60;;
30934;SDS011;51033;42.648;23.292;2023-03-04T01:06:06;23.42;;;16.35;;
30934;SDS011;51033;42.648;23.292;2023-03-04T01:08:33;24.55;;;17.55;;
30934;SDS011;51033;42.648;23.292;2023-03-04T01:10:58;27.65;;;17.25;;
30934;SDS011;51033;42.648;23.292;2023-03-04T01:13:23;24.83;;;17.27;;
30934;SDS011;51033;42.648;23.292;2023-03-04T01:15:49;24.42;;;17.23;;
30934;SDS011;51033;42.648;23.292;2023-03-04T01:18:14;22.00;;;15.73;;
30934;SDS011;51033;42.648;23.292;2023-03-04T01:20:40;28.20;;;18.17;;
30934;SDS011;51033;42.648;23.292;2023-03-04T01:23:05;23.60;;;17.50;;
30934;SDS011;51033;42.648;23.292;2023-03-04T01:25:30;25.92;;;17.90;;
30934;SDS011;51033;42.648;23.292;2023-03-04T01:27:56;25.52;;;17.13;;
30934;SDS011;51033;42.648;23.292;2023-03-04T01:30:21;26.02;;;18.50;;
30934;SDS011;51033;42.648;23.292;2023-03-04T01:32:46;28.52;;;19.73;;
30934;SDS011;51033;42.648;23.292;2023-03-04T01:35:12;25.48;;;17.38;;
30934;SDS011;51033;42.648;23.292;2023-03-04T01:37:37;23.88;;;17.75;;
30934;SDS011;51033;42.648;23.292;2023-03-04T01:40:03;25.65;;;16.38;;
30934;SDS011;51033;42.648;23.292;2023-03-04T01:42:30;23.15;;;16.48;;
30934;SDS011;51033;42.648;23.292;2023-03-04T01:44:57;21.70;;;15.27;;
30934;SDS011;51033;42.648;23.292;2023-03-04T01:47:23;25.45;;;16.58;;
30934;SDS011;51033;42.648;23.292;2023-03-04T01:49:53;21.10;;;15.48;;
30934;SDS011;51033;42.648;23.292;2023-03-04T01:52:21;26.35;;;17.13;;
30934;SDS011;51033;42.648;23.292;2023-03-04T01:54:47;24.38;;;16.70;;
30934;SDS011;51033;42.648;23.292;2023-03-04T01:57:17;23.50;;;16.77;;
30934;SDS011;51033;42.648;23.292;2023-03-04T01:59:45;24.17;;;16.10;;
30934;SDS011;51033;42.648;23.292;2023-03-04T02:02:12;22.33;;;15.73;;
30934;SDS011;51033;42.648;23.292;2023-03-04T02:04:38;21.83;;;15.57;;
30934;SDS011;51033;42.648;23.292;2023-03-04T02:07:06;20.13;;;15.38;;
30934;SDS011;51033;42.648;23.292;2023-03-04T02:09:33;20.67;;;15.35;;
30934;SDS011;51033;42.648;23.292;2023-03-04T02:11:59;19.95;;;15.32;;
30934;SDS011;51033;42.648;23.292;2023-03-04T02:14:25;21.08;;;14.27;;
30934;SDS011;51033;42.648;23.292;2023-03-04T02:16:51;21.17;;;14.07;;
30934;SDS011;51033;42.648;23.292;2023-03-04T02:22:04;20.08;;;13.90;;
30934;SDS011;51033;42.648;23.292;2023-03-04T02:24:40;19.10;;;13.43;;
30934;SDS011;51033;42.648;23.292;2023-03-04T02:27:21;22.02;;;15.90;;
30934;SDS011;51033;42.648;23.292;2023-03-04T02:29:46;20.17;;;13.70;;
30934;SDS011;51033;42.648;23.292;2023-03-04T02:32:11;20.73;;;14.23;;
30934;SDS011;51033;42.648;23.292;2023-03-04T02:34:41;20.65;;;15.13;;
30934;SDS011;51033;42.648;23.292;2023-03-04T02:37:11;21.35;;;15.23;;
30934;SDS011;51033;42.648;23.292;2023-03-04T02:39:40;23.13;;;15.88;;
30934;SDS011;51033;42.648;23.292;2023-03-04T02:42:07;23.77;;;15.75;;
30934;SDS011;51033;42.648;23.292;2023-03-04T02:44:34;21.05;;;15.55;;
30934;SDS011;51033;42.648;23.292;2023-03-04T02:47:02;20.65;;;14.98;;
30934;SDS011;51033;42.648;23.292;2023-03-04T02:49:30;24.38;;;16.23;;
30934;SDS011;51033;42.648;23.292;2023-03-04T02:52:00;21.63;;;14.40;;
30934;SDS011;51033;42.648;23.292;2023-03-04T02:54:46;20.83;;;15.48;;
30934;SDS011;51033;42.648;23.292;2023-03-04T02:57:12;17.70;;;13.57;;
30934;SDS011;51033;42.648;23.292;2023-03-04T02:59:39;19.77;;;13.73;;
30934;SDS011;51033;42.648;23.292;2023-03-04T03:02:06;18.25;;;12.57;;
30934;SDS011;51033;42.648;23.292;2023-03-04T03:04:33;21.83;;;14.70;;
30934;SDS011;51033;42.648;23.292;2023-03-04T03:07:01;19.73;;;13.38;;
30934;SDS011;51033;42.648;23.292;2023-03-04T03:09:27;25.50;;;15.02;;
30934;SDS011;51033;42.648;23.292;2023-03-04T03:11:52;20.08;;;14.40;;
30934;SDS011;51033;42.648;23.292;2023-03-04T03:14:17;19.55;;;14.40;;
30934;SDS011;51033;42.648;23.292;2023-03-04T03:16:43;21.63;;;13.80;;
30934;SDS011;51033;42.648;23.292;2023-03-04T03:19:08;30.48;;;19.65;;
30934;SDS011;51033;42.648;23.292;2023-03-04T03:21:33;30.00;;;19.15;;
30934;SDS011;51033;42.648;23.292;2023-03-04T03:23:59;27.08;;;17.50;;
30934;SDS011;51033;42.648;23.292;2023-03-04T03:26:24;23.30;;;15.93;;
30934;SDS011;51033;42.648;23.292;2023-03-04T03:28:50;20.75;;;13.68;;
30934;SDS011;51033;42.648;23.292;2023-03-04T03:31:15;20.90;;;14.25;;
30934;SDS011;51033;42.648;23.292;2023-03-04T03:33:40;20.52;;;14.05;;
30934;SDS011;51033;42.648;23.292;2023-03-04T03:36:06;23.17;;;14.73;;
30934;SDS011;51033;42.648;23.292;2023-03-04T03:38:32;28.10;;;17.80;;
30934;SDS011;51033;42.648;23.292;2023-03-04T03:40:57;35.25;;;20.48;;
30934;SDS011;51033;42.648;23.292;2023-03-04T03:43:23;26.98;;;18.25;;
30934;SDS011;51033;42.648;23.292;2023-03-04T03:45:48;25.95;;;17.73;;
30934;SDS011;51033;42.648;23.292;2023-03-04T03:48:15;22.83;;;15.07;;
30934;SDS011;51033;42.648;23.292;2023-03-04T03:50:41;23.98;;;15.25;;
30934;SDS011;51033;42.648;23.292;2023-03-04T03:53:06;26.75;;;16.52;;
30934;SDS011;51033;42.648;23.292;2023-03-04T03:55:32;25.33;;;16.08;;
30934;SDS011;51033;42.648;23.292;2023-03-04T03:57:57;25.38;;;15.52;;
30934;SDS011;51033;42.648;23.292;2023-03-04T04:00:23;21.13;;;15.00;;
30934;SDS011;51033;42.648;23.292;2023-03-04T04:02:48;24.67;;;13.75;;
30934;SDS011;51033;42.648;23.292;2023-03-04T04:05:14;23.13;;;14.50;;
30934;SDS011;51033;42.648;23.292;2023-03-04T04:07:39;21.58;;;14.40;;
30934;SDS011;51033;42.648;23.292;2023-03-04T04:10:06;20.33;;;13.73;;
30934;SDS011;51033;42.648;23.292;2023-03-04T04:12:31;13.68;;;10.02;;
30934;SDS011;51033;42.648;23.292;2023-03-04T04:14:57;12.63;;;8.13;;
30934;SDS011;51033;42.648;23.292;2023-03-04T04:17:22;12.30;;;7.30;;
30934;SDS011;51033;42.648;23.292;2023-03-04T04:19:48;9.80;;;7.15;;
30934;SDS011;51033;42.648;23.292;2023-03-04T04:22:15;10.38;;;7.20;;
30934;SDS011;51033;42.648;23.292;2023-03-04T04:24:41;12.65;;;7.60;;
30934;SDS011;51033;42.648;23.292;2023-03-04T04:27:07;13.93;;;7.30;;
30934;SDS011;51033;42.648;23.292;2023-03-04T04:29:32;13.48;;;7.80;;
30934;SDS011;51033;42.648;23.292;2023-03-04T04:31:58;9.77;;;7.03;;
30934;SDS011;51033;42.648;23.292;2023-03-04T04:34:24;11.48;;;6.65;;
30934;SDS011;51033;42.648;23.292;2023-03-04T04:36:50;9.98;;;6.68;;
30934;SDS011;51033;42.648;23.292;2023-03-04T04:39:16;8.43;;;5.90;;
30934;SDS011;51033;42.648;23.292;2023-03-04T04:41:42;8.52;;;5.70;;
30934;SDS011;51033;42.648;23.292;2023-03-04T04:44:08;9.43;;;4.95;;
30934;SDS011;51033;42.648;23.292;2023-03-04T04:46:34;8.60;;;5.22;;
30934;SDS011;51033;42.648;23.292;2023-03-04T04:49:00;10.45;;;6.00;;
30934;SDS011;51033;42.648;23.292;2023-03-04T04:51:26;8.77;;;6.50;;
30934;SDS011;51033;42.648;23.292;2023-03-04T04:53:52;9.27;;;6.07;;
30934;SDS011;51033;42.648;23.292;2023-03-04T04:56:18;10.77;;;5.38;;
30934;SDS011;51033;42.648;23.292;2023-03-04T04:58:45;6.82;;;4.65;;
30934;SDS011;51033;42.648;23.292;2023-03-04T05:01:11;7.72;;;5.50;;
30934;SDS011;51033;42.648;23.292;2023-03-04T05:03:37;9.23;;;5.20;;
30934;SDS011;51033;42.648;23.292;2023-03-04T05:06:04;9.10;;;5.05;;
30934;SDS011;51033;42.648;23.292;2023-03-04T05:08:31;10.13;;;6.13;;
30934;SDS011;51033;42.648;23.292;2023-03-04T05:10:56;9.50;;;5.43;;
30934;SDS011;51033;42.648;23.292;2023-03-04T05:13:22;9.77;;;6.50;;
30934;SDS011;51033;42.648;23.292;2023-03-04T05:15:49;8.98;;;6.00;;
30934;SDS011;51033;42.648;23.292;2023-03-04T05:18:17;7.85;;;5.57;;
30934;SDS011;51033;42.648;23.292;2023-03-04T05:20:43;7.68;;;4.75;;
30934;SDS011;51033;42.648;23.292;2023-03-04T05:23:08;7.13;;;4.43;;
30934;SDS011;51033;42.648;23.292;2023-03-04T05:25:34;14.07;;;7.00;;
30934;SDS011;51033;42.648;23.292;2023-03-04T05:27:59;7.05;;;4.28;;
30934;SDS011;51033;42.648;23.292;2023-03-04T05:30:26;8.75;;;5.15;;
30934;SDS011;51033;42.648;23.292;2023-03-04T05:32:51;13.05;;;7.68;;
30934;SDS011;51033;42.648;23.292;2023-03-04T05:35:17;9.85;;;6.32;;
30934;SDS011;51033;42.648;23.292;2023-03-04T05:37:42;11.82;;;6.45;;
30934;SDS011;51033;42.648;23.292;2023-03-04T05:40:08;10.30;;;6.20;;
30934;SDS011;51033;42.648;23.292;2023-03-04T05:42:33;31.13;;;18.73;;
30934;SDS011;51033;42.648;23.292;2023-03-04T05:44:59;36.47;;;24.05;;
30934;SDS011;51033;42.648;23.292;2023-03-04T05:47:24;26.80;;;21.02;;
30934;SDS011;51033;42.648;23.292;2023-03-04T05:49:50;17.52;;;14.50;;
30934;SDS011;51033;42.648;23.292;2023-03-04T05:52:15;29.88;;;22.45;;
30934;SDS011;51033;42.648;23.292;2023-03-04T05:54:40;28.52;;;23.48;;
30934;SDS011;51033;42.648;23.292;2023-03-04T05:57:06;22.45;;;13.35;;
30934;SDS011;51033;42.648;23.292;2023-03-04T05:59:31;11.80;;;8.75;;
30934;SDS011;51033;42.648;23.292;2023-03-04T06:01:56;11.15;;;7.30;;
30934;SDS011;51033;42.648;23.292;2023-03-04T06:04:22;12.90;;;7.38;;
30934;SDS011;51033;42.648;23.292;2023-03-04T06:06:47;14.95;;;10.80;;
30934;SDS011;51033;42.648;23.292;2023-03-04T06:09:13;16.25;;;12.48;;
30934;SDS011;51033;42.648;23.292;2023-03-04T06:11:39;17.08;;;11.98;;
30934;SDS011;51033;42.648;23.292;2023-03-04T06:14:05;20.30;;;13.35;;
30934;SDS011;51033;42.648;23.292;2023-03-04T06:16:30;18.80;;;11.35;;
30934;SDS011;51033;42.648;23.292;2023-03-04T06:18:56;19.48;;;11.80;;
30934;SDS011;51033;42.648;23.292;2023-03-04T06:21:21;24.10;;;12.27;;
30934;SDS011;51033;42.648;23.292;2023-03-04T06:23:47;19.13;;;12.00;;
30934;SDS011;51033;42.648;23.292;2023-03-04T06:26:12;17.17;;;11.93;;
30934;SDS011;51033;42.648;23.292;2023-03-04T06:28:40;14.90;;;10.98;;
30934;SDS011;51033;42.648;23.292;2023-03-04T06:31:06;16.45;;;10.25;;
30934;SDS011;51033;42.648;23.292;2023-03-04T06:33:31;15.80;;;10.85;;
30934;SDS011;51033;42.648;23.292;2023-03-04T06:35:57;22.15;;;12.77;;
30934;SDS011;51033;42.648;23.292;2023-03-04T06:38:23;18.38;;;12.55;;
30934;SDS011;51033;42.648;23.292;2023-03-04T06:40:49;18.83;;;13.02;;
30934;SDS011;51033;42.648;23.292;2023-03-04T06:43:14;22.48;;;13.75;;
30934;SDS011;51033;42.648;23.292;2023-03-04T06:45:40;21.65;;;12.95;;
30934;SDS011;51033;42.648;23.292;2023-03-04T06:48:05;18.10;;;13.35;;
30934;SDS011;51033;42.648;23.292;2023-03-04T06:50:31;23.98;;;15.93;;
30934;SDS011;51033;42.648;23.292;2023-03-04T06:52:56;24.02;;;14.02;;
30934;SDS011;51033;42.648;23.292;2023-03-04T06:55:22;23.88;;;13.70;;
30934;SDS011;51033;42.648;23.292;2023-03-04T06:57:48;21.98;;;14.32;;
30934;SDS011;51033;42.648;23.292;2023-03-04T07:00:13;24.63;;;15.27;;
30934;SDS011;51033;42.648;23.292;2023-03-04T07:02:39;21.05;;;14.23;;
30934;SDS011;51033;42.648;23.292;2023-03-04T07:05:05;22.67;;;14.43;;
30934;SDS011;51033;42.648;23.292;2023-03-04T07:07:30;23.88;;;15.60;;
30934;SDS011;51033;42.648;23.292;2023-03-04T07:09:56;24.02;;;15.40;;
30934;SDS011;51033;42.648;23.292;2023-03-04T07:12:22;25.90;;;16.48;;
30934;SDS011;51033;42.648;23.292;2023-03-04T07:14:47;25.40;;;15.35;;
30934;SDS011;51033;42.648;23.292;2023-03-04T07:17:13;24.38;;;16.58;;
30934;SDS011;51033;42.648;23.292;2023-03-04T07:19:38;26.85;;;16.35;;
30934;SDS011;51033;42.648;23.292;2023-03-04T07:22:05;23.48;;;16.63;;
30934;SDS011;51033;42.648;23.292;2023-03-04T07:24:31;27.13;;;17.30;;
30934;SDS011;51033;42.648;23.292;2023-03-04T07:26:56;28.40;;;17.42;;
30934;SDS011;51033;42.648;23.292;2023-03-04T07:29:22;26.63;;;17.60;;
30934;SDS011;51033;42.648;23.292;2023-03-04T07:31:47;27.15;;;16.48;;
30934;SDS011;51033;42.648;23.292;2023-03-04T07:34:13;22.35;;;15.70;;
30934;SDS011;51033;42.648;23.292;2023-03-04T07:36:39;19.80;;;14.18;;
30934;SDS011;51033;42.648;23.292;2023-03-04T07:39:06;30.33;;;16.90;;
30934;SDS011;51033;42.648;23.292;2023-03-04T07:41:32;25.02;;;17.38;;
30934;SDS011;51033;42.648;23.292;2023-03-04T07:44:00;27.20;;;16.20;;
30934;SDS011;51033;42.648;23.292;2023-03-04T07:46:26;24.60;;;15.90;;
30934;SDS011;51033;42.648;23.292;2023-03-04T07:48:55;25.15;;;16.85;;
30934;SDS011;51033;42.648;23.292;2023-03-04T07:51:22;26.98;;;17.27;;
30934;SDS011;51033;42.648;23.292;2023-03-04T07:53:50;25.90;;;15.07;;
30934;SDS011;51033;42.648;23.292;2023-03-04T07:56:24;22.50;;;14.57;;
30934;SDS011;51033;42.648;23.292;2023-03-04T07:58:52;21.30;;;15.73;;
30934;SDS011;51033;42.648;23.292;2023-03-04T08:01:22;20.92;;;12.90;;
30934;SDS011;51033;42.648;23.292;2023-03-04T08:03:55;24.05;;;12.35;;
30934;SDS011;51033;42.648;23.292;2023-03-04T08:06:21;19.63;;;13.20;;
30934;SDS011;51033;42.648;23.292;2023-03-04T08:08:48;22.23;;;13.63;;
30934;SDS011;51033;42.648;23.292;2023-03-04T08:11:19;21.38;;;12.45;;
30934;SDS011;51033;42.648;23.292;2023-03-04T08:13:46;19.95;;;11.98;;
30934;SDS011;51033;42.648;23.292;2023-03-04T08:16:13;24.33;;;14.32;;
30934;SDS011;51033;42.648;23.292;2023-03-04T08:18:45;26.05;;;15.05;;
30934;SDS011;51033;42.648;23.292;2023-03-04T08:21:13;22.92;;;13.55;;
30934;SDS011;51033;42.648;23.292;2023-03-04T08:23:40;22.13;;;13.10;;
30934;SDS011;51033;42.648;23.292;2023-03-04T08:26:10;21.08;;;13.90;;
30934;SDS011;51033;42.648;23.292;2023-03-04T08:28:38;17.75;;;11.82;;
30934;SDS011;51033;42.648;23.292;2023-03-04T08:31:04;22.05;;;13.20;;
30934;SDS011;51033;42.648;23.292;2023-03-04T08:33:30;25.48;;;14.55;;
30934;SDS011;51033;42.648;23.292;2023-03-04T08:35:57;22.00;;;14.32;;
30934;SDS011;51033;42.648;23.292;2023-03-04T08:38:23;46.33;;;24.52;;
30934;SDS011;51033;42.648;23.292;2023-03-04T08:40:52;21.92;;;14.30;;
30934;SDS011;51033;42.648;23.292;2023-03-04T08:43:19;24.52;;;15.18;;
30934;SDS011;51033;42.648;23.292;2023-03-04T08:45:44;25.73;;;14.80;;
30934;SDS011;51033;42.648;23.292;2023-03-04T08:48:10;18.50;;;13.35;;
30934;SDS011;51033;42.648;23.292;2023-03-04T08:50:36;19.23;;;12.95;;
30934;SDS011;51033;42.648;23.292;2023-03-04T08:53:02;18.60;;;12.40;;
30934;SDS011;51033;42.648;23.292;2023-03-04T08:55:28;17.25;;;11.48;;
30934;SDS011;51033;42.648;23.292;2023-03-04T08:57:54;21.10;;;12.90;;
30934;SDS011;51033;42.648;23.292;2023-03-04T09:00:19;17.33;;;11.55;;
30934;SDS011;51033;42.648;23.292;2023-03-04T09:02:47;17.73;;;11.95;;
30934;SDS011;51033;42.648;23.292;2023-03-04T09:05:12;20.80;;;13.02;;
30934;SDS011;51033;42.648;23.292;2023-03-04T09:07:40;25.63;;;13.13;;
30934;SDS011;51033;42.648;23.292;2023-03-04T09:10:10;24.70;;;14.02;;
30934;SDS011;51033;42.648;23.292;2023-03-04T09:12:37;18.88;;;12.85;;
30934;SDS011;51033;42.648;23.292;2023-03-04T09:15:03;25.83;;;15.55;;
30934;SDS011;51033;42.648;23.292;2023-03-04T09:17:30;25.35;;;16.80;;
30934;SDS011;51033;42.648;23.292;2023-03-04T09:19:57;30.40;;;16.35;;
30934;SDS011;51033;42.648;23.292;2023-03-04T09:22:22;30.65;;;18.13;;
30934;SDS011;51033;42.648;23.292;2023-03-04T09:24:48;29.63;;;19.75;;
30934;SDS011;51033;42.648;23.292;2023-03-04T09:27:13;26.50;;;16.10;;
30934;SDS011;51033;42.648;23.292;2023-03-04T09:29:41;32.22;;;17.95;;
30934;SDS011;51033;42.648;23.292;2023-03-04T09:32:10;28.67;;;16.45;;
30934;SDS011;51033;42.648;23.292;2023-03-04T09:34:36;27.35;;;17.30;;
30934;SDS011;51033;42.648;23.292;2023-03-04T09:37:02;30.35;;;16.92;;
30934;SDS011;51033;42.648;23.292;2023-03-04T09:39:27;27.13;;;16.50;;
30934;SDS011;51033;42.648;23.292;2023-03-04T09:41:53;28.50;;;17.38;;
30934;SDS011;51033;42.648;23.292;2023-03-04T09:46:59;27.90;;;15.60;;
30934;SDS011;51033;42.648;23.292;2023-03-04T09:49:26;24.35;;;16.05;;
30934;SDS011;51033;42.648;23.292;2023-03-04T10:00:22;25.80;;;15.75;;
30934;SDS011;51033;42.648;23.292;2023-03-04T10:02:52;24.08;;;15.73;;
30934;SDS011;51033;42.648;23.292;2023-03-04T10:05:53;24.33;;;15.80;;
30934;SDS011;51033;42.648;23.292;2023-03-04T10:08:31;26.63;;;15.35;;
30934;SDS011;51033;42.648;23.292;2023-03-04T10:13:49;23.17;;;14.23;;
30934;SDS011;51033;42.648;23.292;2023-03-04T10:16:51;21.38;;;14.98;;
30934;SDS011;51033;42.648;23.292;2023-03-04T10:22:22;23.50;;;15.70;;
30934;SDS011;51033;42.648;23.292;2023-03-04T10:24:56;29.17;;;15.40;;
30934;SDS011;51033;42.648;23.292;2023-03-04T10:27:23;23.77;;;15.80;;
30934;SDS011;51033;42.648;23.292;2023-03-04T10:29:54;23.90;;;14.57;;
30934;SDS011;51033;42.648;23.292;2023-03-04T10:32:22;31.98;;;17.88;;
30934;SDS011;51033;42.648;23.292;2023-03-04T10:34:48;25.50;;;14.68;;
30934;SDS011;51033;42.648;23.292;2023-03-04T10:37:13;24.75;;;14.35;;
30934;SDS011;51033;42.648;23.292;2023-03-04T10:39:43;22.35;;;14.50;;
30934;SDS011;51033;42.648;23.292;2023-03-04T10:44:40;23.52;;;14.63;;
30934;SDS011;51033;42.648;23.292;2023-03-04T10:47:16;31.25;;;15.02;;
30934;SDS011;51033;42.648;23.292;2023-03-04T10:54:52;23.95;;;14.27;;
30934;SDS011;51033;42.648;23.292;2023-03-04T10:57:20;20.52;;;14.45;;
30934;SDS011;51033;42.648;23.292;2023-03-04T10:59:56;22.98;;;15.18;;
30934;SDS011;51033;42.648;23.292;2023-03-04T11:07:40;26.48;;;16.83;;
30934;SDS011;51033;42.648;23.292;2023-03-04T11:12:50;30.23;;;17.05;;
30934;SDS011;51033;42.648;23.292;2023-03-04T11:15:24;20.83;;;13.98;;
30934;SDS011;51033;42.648;23.292;2023-03-04T11:18:13;22.15;;;15.98;;
30934;SDS011;51033;42.648;23.292;2023-03-04T11:20:41;23.98;;;16.45;;
30934;SDS011;51033;42.648;23.292;2023-03-04T11:23:18;20.95;;;15.05;;
30934;SDS011;51033;42.648;23.292;2023-03-04T11:26:07;26.90;;;16.73;;
30934;SDS011;51033;42.648;23.292;2023-03-04T11:31:19;22.63;;;16.17;;
30934;SDS011;51033;42.648;23.292;2023-03-04T11:39:16;26.38;;;16.42;;
30934;SDS011;51033;42.648;23.292;2023-03-04T11:41:56;25.73;;;17.13;;
30934;SDS011;51033;42.648;23.292;2023-03-04T11:44:26;26.88;;;16.35;;
30934;SDS011;51033;42.648;23.292;2023-03-04T11:58:17;25.40;;;17.52;;
30934;SDS011;51033;42.648;23.292;2023-03-04T12:01:08;31.05;;;18.13;;
30934;SDS011;51033;42.648;23.292;2023-03-04T12:39:35;26.60;;;18.75;;
30934;SDS011;51033;42.648;23.292;2023-03-04T12:42:37;31.55;;;19.75;;
30934;SDS011;51033;42.648;23.292;2023-03-04T12:55:47;30.77;;;18.42;;
30934;SDS011;51033;42.648;23.292;2023-03-04T12:58:15;25.00;;;16.67;;
30934;SDS011;51033;42.648;23.292;2023-03-04T13:14:00;28.77;;;18.05;;
30934;SDS011;51033;42.648;23.292;2023-03-04T13:16:29;29.25;;;19.27;;
30934;SDS011;51033;42.648;23.292;2023-03-04T13:18:58;29.45;;;20.35;;
30934;SDS011;51033;42.648;23.292;2023-03-04T13:21:25;29.35;;;20.98;;
30934;SDS011;51033;42.648;23.292;2023-03-04T13:23:55;32.10;;;19.27;;
30934;SDS011;51033;42.648;23.292;2023-03-04T13:26:32;30.85;;;19.67;;
30934;SDS011;51033;42.648;23.292;2023-03-04T13:32:04;33.90;;;21.85;;
30934;SDS011;51033;42.648;23.292;2023-03-04T13:34:43;29.80;;;19.23;;
30934;SDS011;51033;42.648;23.292;2023-03-04T13:42:51;34.30;;;21.50;;
30934;SDS011;51033;42.648;23.292;2023-03-04T13:48:03;33.55;;;22.80;;
30934;SDS011;51033;42.648;23.292;2023-03-04T13:50:47;37.77;;;22.43;;
30934;SDS011;51033;42.648;23.292;2023-03-04T13:53:18;32.25;;;23.35;;
30934;SDS011;51033;42.648;23.292;2023-03-04T13:56:01;37.40;;;22.63;;
30934;SDS011;51033;42.648;23.292;2023-03-04T13:58:28;35.60;;;23.35;;
30934;SDS011;51033;42.648;23.292;2023-03-04T14:00:54;34.38;;;22.13;;
30934;SDS011;51033;42.648;23.292;2023-03-04T14:03:21;36.58;;;22.52;;
30934;SDS011;51033;42.648;23.292;2023-03-04T14:08:44;40.13;;;21.90;;
30934;SDS011;51033;42.648;23.292;2023-03-04T14:11:14;37.58;;;23.90;;
30934;SDS011;51033;42.648;23.292;2023-03-04T14:13:47;33.65;;;22.75;;
30934;SDS011;51033;42.648;23.292;2023-03-04T14:16:17;36.35;;;22.58;;
30934;SDS011;51033;42.648;23.292;2023-03-04T14:18:43;34.03;;;25.60;;
30934;SDS011;51033;42.648;23.292;2023-03-04T14:21:12;39.28;;;23.77;;
30934;SDS011;51033;42.648;23.292;2023-03-04T14:23:39;43.38;;;24.75;;
30934;SDS011;51033;42.648;23.292;2023-03-04T14:26:11;31.92;;;21.25;;
30934;SDS011;51033;42.648;23.292;2023-03-04T14:28:48;36.00;;;22.73;;
30934;SDS011;51033;42.648;23.292;2023-03-04T14:31:22;36.65;;;23.08;;
30934;SDS011;51033;42.648;23.292;2023-03-04T14:33:50;41.28;;;22.75;;
30934;SDS011;51033;42.648;23.292;2023-03-04T14:36:21;37.08;;;23.88;;
30934;SDS011;51033;42.648;23.292;2023-03-04T14:38:52;29.52;;;20.30;;
30934;SDS011;51033;42.648;23.292;2023-03-04T14:41:30;34.45;;;21.00;;
30934;SDS011;51033;42.648;23.292;2023-03-04T14:48:53;35.05;;;23.48;;
30934;SDS011;51033;42.648;23.292;2023-03-04T14:51:28;36.28;;;22.15;;
30934;SDS011;51033;42.648;23.292;2023-03-04T14:56:27;32.85;;;19.48;;
30934;SDS011;51033;42.648;23.292;2023-03-04T14:58:58;29.92;;;20.02;;
30934;SDS011;51033;42.648;23.292;2023-03-04T15:01:31;30.98;;;20.10;;
30934;SDS011;51033;42.648;23.292;2023-03-04T15:06:28;30.23;;;20.33;;
30934;SDS011;51033;42.648;23.292;2023-03-04T15:17:31;31.02;;;20.05;;
30934;SDS011;51033;42.648;23.292;2023-03-04T15:23:05;30.27;;;18.95;;
30934;SDS011;51033;42.648;23.292;2023-03-04T15:25:26;26.27;;;19.70;;
30934;SDS011;51033;42.648;23.292;2023-03-04T15:27:52;30.20;;;19.02;;
30934;SDS011;51033;42.648;23.292;2023-03-04T15:32:47;40.17;;;24.92;;
30934;SDS011;51033;42.648;23.292;2023-03-04T15:35:15;37.72;;;20.52;;
30934;SDS011;51033;42.648;23.292;2023-03-04T15:37:41;35.65;;;22.48;;
30934;SDS011;51033;42.648;23.292;2023-03-04T15:40:41;30.27;;;19.85;;
30934;SDS011;51033;42.648;23.292;2023-03-04T15:43:03;34.17;;;20.50;;
30934;SDS011;51033;42.648;23.292;2023-03-04T15:45:34;30.30;;;19.63;;
30934;SDS011;51033;42.648;23.292;2023-03-04T15:48:01;32.25;;;20.38;;
30934;SDS011;51033;42.648;23.292;2023-03-04T15:50:31;33.38;;;20.40;;
30934;SDS011;51033;42.648;23.292;2023-03-04T15:52:59;36.85;;;21.77;;
30934;SDS011;51033;42.648;23.292;2023-03-04T15:55:27;30.20;;;20.60;;
30934;SDS011;51033;42.648;23.292;2023-03-04T15:57:55;27.92;;;19.80;;
30934;SDS011;51033;42.648;23.292;2023-03-04T16:00:22;31.98;;;19.80;;
30934;SDS011;51033;42.648;23.292;2023-03-04T16:02:48;33.28;;;20.75;;
30934;SDS011;51033;42.648;23.292;2023-03-04T16:05:14;30.40;;;22.42;;
30934;SDS011;51033;42.648;23.292;2023-03-04T16:07:41;32.15;;;22.67;;
30934;SDS011;51033;42.648;23.292;2023-03-04T16:10:26;33.63;;;20.80;;
30934;SDS011;51033;42.648;23.292;2023-03-04T16:12:54;33.50;;;21.63;;
30934;SDS011;51033;42.648;23.292;2023-03-04T16:15:25;30.02;;;21.27;;
30934;SDS011;51033;42.648;23.292;2023-03-04T16:17:52;35.05;;;24.70;;
30934;SDS011;51033;42.648;23.292;2023-03-04T16:20:19;33.60;;;23.48;;
30934;SDS011;51033;42.648;23.292;2023-03-04T16:22:47;36.78;;;23.05;;
30934;SDS011;51033;42.648;23.292;2023-03-04T16:25:15;30.08;;;21.58;;
30934;SDS011;51033;42.648;23.292;2023-03-04T16:27:42;29.67;;;21.38;;
30934;SDS011;51033;42.648;23.292;2023-03-04T16:30:16;33.72;;;22.42;;
30934;SDS011;51033;42.648;23.292;2023-03-04T16:32:43;41.63;;;22.73;;
30934;SDS011;51033;42.648;23.292;2023-03-04T16:35:09;33.00;;;20.48;;
30934;SDS011;51033;42.648;23.292;2023-03-04T16:37:35;34.72;;;21.63;;
30934;SDS011;51033;42.648;23.292;2023-03-04T16:40:01;40.78;;;23.77;;
30934;SDS011;51033;42.648;23.292;2023-03-04T16:42:29;40.35;;;26.58;;
30934;SDS011;51033;42.648;23.292;2023-03-04T16:44:54;40.35;;;23.63;;
30934;SDS011;51033;42.648;23.292;2023-03-04T16:47:20;32.22;;;23.25;;